Pagrindinis puslapis
METAR-TAF:

METAR-TAF

Oro uostai :

Chargas, Iranas

platuma: 29-15-34N, ilguma: 50-19-24E, Aukštis: 5 m

Dabartinis oras

Ataskaita buvo paskelbta 1 valandą ir 29 minutes, ne 15:00 UTC
Vėjas 12 kt iš Pietų
Temperatūra 22°C
Drėgmė 83%
Slėgis 1006 hPa
Matomumas 10 km arba daugiau
Išsisklaidę debesys ne aukštis 4000 ft

METAR: OIBQ 291500Z 18012KT 9999 SCT040 22/19 Q1006

Laikas: 20:59 (16:29 UTC)


TAF: trūkstamas

Orai ataskaitas ir orų prognozės (METAR, TAF).

turimą stotys yra geltonos ir raudonos taškus žemėlapyje.

Perkelti pele per norėdami pamatyti stoties vardą.

Tada spustelėkite, norėdami matyti oro stebėjimo ir prognozės.

Norėdami pakeisti žemėlapį: spustelėkite ant žalios mygtukų su juodo kryžiaus žemyn,; žalią mygtuką su brūkšneliu, jei norite nutolinti; arba žalių rodyklių gretimoms žemėlapius.


METAR-TAF: